Ajax, Louisiana
Current Conditions -  °F | °C
As of 10:55 PM on Monday 22 Dec 2014 (Local Time) from KIER Reporting Station
Haze Haze  
Wind Chill: 53°   Ceiling: 700
Heat Index: 53°   Visibility: 1.5mi
Dew Point: 53°   Wind: 0mph
Humidity: 99%   Direction: NA
Pressure: 29.67"   Gusts: NA
Location:  31.7926°N, 93.4001°W
Report Text: KIER 230455Z AUTO 00000KT 1 1/2SM BR VV007 12/12 A2967 RMK AO2 T01160115
Loading
Personal Weather Stations






























Interactive Weather Map New forecast layout! Learn more

10-Day Weather Forecast

Advertisements
Track Severe Weather on mobile